الصفحة الرئيسية
METAR-TAF:

METAR-TAF

مطار :

جيرالدتون, أستراليا

دائرة عرض: 28-47-46S, خط طول: 114-42-27E, ارتفاع: 37 متر

مراقبة الطقس الحالي

تاريخ ووقت الإصدار 19 دقيقة قبل الساعة 20:30UTC
ريح 2 عقدة من الجنوب
درجة الحرارة 18°درجة مئوية
الرطوبة 45%
ضغط 1020 hPa
الرؤية 10 كم أو أكثر

METAR: YGEL 172030Z AUTO 19002KT 9999 // NCD 18/06 Q1020 RF00.0/000.0

زمن: 04:49 (20:49 UTC)

توقعات

تاريخ ووقت الإصدار 3ساعات و 36 دقيقة قبل الساعة 17:13UTC
التوقعات صالحة من17 الساعة 18 UTC إلى 18 الساعة 12 UTC
ريح 12 عقدة من الشرق
الرؤية 10 كم أو أكثر
الغيوم لا تقل 1500 م ولا وجود لمزنة ركامية السحاب الأسود
من 18 الساعة 0600 UTC
ريح 15 عقدة من الجنوب
الرؤية 10 كم أو أكثر
الغيوم لا تقل 1500 م ولا وجود لمزنة ركامية السحاب الأسود

TAF: YGEL 171713Z 1718/1812 09012KT CAVOK FM180600 18015KT CAVOK

أرصاد الطقس والتوقعات من أكثر من 4000 مطار (تقارير الطقس للمطار METAR والتنبؤ بالطقس بالمطارTAF).

المحطات المتاحة هي النقط الصفراء والحمراء على الخريطة.

حرك المؤشر فوق النقطة لمعرفة اسم المحطة.

ثم انقر لمعرفة أرصاد وتوقعات الطقس.

لتغيير الخارطة: اضغط على الأزرار الخضراء مع رمز الصليب الأسود للتكبير. على الزر الأخضر مع شرطة للتصغير، أو على الأسهم الخضراء للخرائط المجاورة.


METAR-TAF: